createdAt,value
2018-03-20T09:04:38.819Z,32.37
2018-03-20T09:07:06.370Z,27.77
2018-03-20T09:09:34.558Z,28.53
2018-03-20T09:15:04.654Z,34.37
2018-03-20T09:17:34.725Z,32.93
2018-03-20T09:20:05.604Z,29.60
2018-03-20T09:22:35.578Z,28.80
2018-03-20T09:25:34.067Z,29.90
2018-03-20T09:28:04.441Z,28.67
2018-03-20T09:30:35.581Z,26.37
2018-03-20T09:51:05.680Z,26.50
2018-03-20T10:11:43.713Z,31.43
2018-03-20T10:27:37.340Z,24.10
2018-03-20T10:30:10.641Z,27.50
2018-03-20T10:32:38.903Z,23.70
2018-03-20T10:35:06.431Z,27.50
2018-03-20T10:43:45.960Z,25.97
2018-03-20T10:46:43.198Z,26.83
2018-03-20T11:10:09.236Z,24.10
2018-03-20T11:21:33.714Z,21.00
2018-03-20T11:30:12.354Z,20.83
2018-03-20T11:35:35.091Z,24.40
2018-03-20T11:47:05.544Z,22.13
2018-03-20T11:49:35.454Z,24.80
2018-03-20T11:57:36.363Z,26.90
2018-03-20T12:06:39.730Z,25.70
2018-03-20T12:21:13.146Z,22.43
2018-03-20T12:23:42.327Z,21.17
2018-03-20T12:26:09.805Z,23.43
2018-03-20T12:31:43.437Z,25.30
2018-03-20T12:34:13.598Z,24.70
2018-03-20T12:49:40.494Z,22.63
2018-03-20T12:52:08.043Z,23.27
2018-03-20T12:54:36.937Z,26.97
2018-03-20T12:57:05.198Z,19.63
2018-03-20T14:22:02.863Z,12.47
2018-03-20T14:24:34.436Z,12.73
2018-03-20T14:27:02.870Z,15.03
2018-03-20T14:29:33.800Z,11.27
2018-03-20T14:32:04.665Z,8.70
2018-03-20T14:34:33.865Z,14.97
2018-03-20T14:37:03.913Z,11.60
2018-03-20T14:39:32.804Z,9.07
2018-03-20T14:42:00.745Z,11.30
2018-03-20T14:44:34.656Z,9.30
2018-03-20T14:47:05.025Z,10.60
2018-03-20T14:49:34.981Z,8.23
2018-03-20T14:52:04.866Z,9.00
2018-03-20T14:54:34.848Z,8.00
2018-03-20T14:57:05.004Z,11.00
2018-03-20T14:59:35.871Z,7.40
2018-03-20T15:02:04.972Z,10.23
2018-03-20T15:07:34.802Z,7.00
2018-03-20T15:10:03.930Z,8.80
2018-03-20T15:12:35.026Z,8.63
2018-03-20T15:15:05.898Z,8.73
2018-03-20T15:18:21.686Z,7.97
2018-03-20T15:24:36.486Z,14.47
2018-03-20T15:27:09.344Z,9.50
2018-03-20T15:29:36.806Z,7.40
2018-03-20T15:32:04.494Z,7.57
2018-03-20T15:34:36.006Z,8.00
2018-03-20T15:37:03.588Z,6.53
2018-03-20T15:39:31.331Z,9.97
2018-03-20T15:41:58.837Z,8.90
2018-03-20T15:44:34.194Z,10.10
2018-03-20T15:47:05.175Z,9.60
2018-03-20T15:49:34.269Z,8.30
2018-03-20T15:52:06.062Z,10.40
2018-03-20T15:54:36.301Z,12.13
2018-03-20T15:57:06.174Z,15.30
2018-03-20T15:59:42.045Z,14.43
2018-03-20T16:02:09.526Z,14.13
2018-03-20T16:04:36.973Z,10.90
2018-03-20T16:07:04.454Z,8.57
2018-03-20T16:12:35.518Z,12.33
2018-03-20T16:15:04.378Z,9.67
2018-03-20T16:17:36.402Z,9.53
2018-03-20T16:23:10.465Z,14.00
2018-03-20T16:25:37.962Z,10.90
2018-03-20T16:28:06.178Z,11.13
2018-03-20T16:30:34.802Z,9.17
2018-03-20T16:33:05.433Z,11.50
2018-03-20T16:35:34.475Z,12.20
2018-03-20T16:38:03.797Z,14.63
2018-03-20T16:40:34.621Z,11.50
2018-03-20T16:43:05.535Z,10.77
2018-03-20T16:45:33.721Z,10.63
2018-03-20T16:48:04.455Z,8.00
2018-03-20T16:50:34.506Z,9.50
2018-03-20T16:53:02.849Z,9.40
2018-03-20T16:55:34.318Z,12.83
2018-03-20T16:58:11.181Z,9.57
2018-03-20T17:10:04.920Z,10.53
2018-03-20T17:18:56.239Z,13.40
2018-03-20T17:27:39.365Z,16.43
2018-03-20T17:30:32.415Z,10.93
2018-03-20T17:33:27.345Z,13.63
2018-03-20T17:36:05.516Z,8.93
2018-03-20T17:38:34.813Z,9.30
2018-03-20T17:41:06.841Z,13.80
2018-03-20T17:43:34.335Z,9.97
2018-03-20T17:52:10.229Z,11.13
2018-03-20T17:54:37.677Z,9.30
2018-03-20T17:57:07.277Z,10.60
2018-03-20T17:59:35.506Z,11.17
2018-03-20T18:02:03.438Z,8.30
2018-03-20T18:04:35.421Z,12.40
2018-03-20T18:07:03.917Z,12.27
2018-03-20T18:09:31.353Z,11.13
2018-03-20T18:12:26.057Z,14.80
2018-03-20T18:32:38.075Z,15.53
2018-03-20T18:35:05.764Z,11.10
2018-03-20T18:37:35.525Z,9.23
2018-03-20T18:43:34.563Z,12.43
2018-03-20T18:52:33.910Z,10.80
2018-03-20T18:55:02.918Z,12.07
2018-03-20T18:57:33.244Z,14.03
2018-03-20T19:03:13.982Z,9.23
2018-03-20T19:05:41.479Z,12.23
2018-03-20T19:08:08.928Z,13.47
2018-03-20T19:10:38.734Z,16.70
2018-03-20T19:13:06.249Z,16.03
2018-03-20T19:15:35.504Z,14.33
2018-03-20T19:20:57.147Z,15.63
2018-03-20T19:23:30.000Z,13.87
2018-03-20T19:25:58.919Z,16.80
2018-03-20T19:28:31.359Z,19.27
2018-03-20T19:31:03.042Z,14.87
2018-03-20T19:33:31.491Z,15.80
2018-03-20T19:36:00.694Z,18.17
2018-03-20T19:38:32.306Z,14.90
2018-03-20T19:41:04.836Z,23.10
2018-03-20T19:43:32.322Z,27.40
2018-03-20T19:46:01.589Z,25.50
2018-03-20T19:48:34.457Z,29.63
2018-03-20T19:51:01.916Z,27.70
2018-03-20T19:53:35.539Z,26.03
2018-03-20T19:56:03.773Z,24.90
2018-03-20T19:58:42.182Z,27.90
2018-03-20T20:01:09.673Z,33.50
2018-03-20T20:03:37.141Z,29.90
2018-03-20T20:06:12.499Z,33.30
2018-03-20T20:08:43.748Z,34.67
2018-03-20T20:11:11.991Z,31.73
2018-03-20T20:17:39.943Z,36.90
2018-03-20T20:20:09.295Z,50.07
2018-03-20T20:22:36.792Z,40.90
2018-03-20T20:25:06.289Z,41.00
2018-03-20T20:27:34.365Z,37.10
2018-03-20T20:33:13.161Z,41.80
2018-03-20T20:35:40.617Z,46.40
2018-03-20T20:41:14.314Z,40.00
2018-03-20T20:43:42.923Z,37.90
2018-03-20T20:49:13.908Z,39.87
2018-03-20T20:51:41.362Z,39.70
2018-03-20T20:54:09.053Z,41.70
2018-03-20T20:56:37.287Z,43.90
2018-03-20T20:59:05.550Z,47.53
2018-03-20T21:01:34.006Z,42.13
2018-03-20T21:04:01.501Z,46.20
2018-03-20T21:06:34.851Z,44.07
2018-03-20T21:09:04.802Z,48.57
2018-03-20T21:11:33.029Z,41.83
2018-03-20T21:14:40.163Z,41.20
2018-03-20T21:17:07.658Z,44.40
2018-03-20T21:20:15.563Z,41.20
2018-03-20T21:23:05.651Z,43.93
2018-03-20T21:25:35.476Z,36.57
2018-03-20T21:28:06.346Z,41.60
2018-03-20T21:30:36.449Z,45.07
2018-03-20T21:33:05.370Z,48.30
2018-03-20T21:35:36.329Z,54.53
2018-03-20T21:41:10.309Z,46.50
2018-03-20T21:43:38.529Z,51.80
2018-03-20T21:46:06.020Z,44.50
2018-03-20T21:48:37.936Z,51.97
2018-03-20T21:51:05.421Z,43.30
2018-03-20T21:53:35.384Z,46.63
2018-03-20T21:56:05.476Z,46.47
2018-03-20T21:58:36.575Z,47.20
2018-03-20T22:01:10.166Z,51.80
2018-03-20T22:03:38.383Z,44.67
2018-03-20T22:06:05.873Z,49.10
2018-03-20T22:08:36.557Z,43.40
2018-03-20T22:11:05.586Z,49.37
2018-03-20T22:13:35.809Z,49.40
2018-03-20T22:16:05.606Z,46.33
2018-03-20T22:18:34.767Z,39.90
2018-03-20T22:21:32.636Z,42.10
2018-03-20T22:24:05.425Z,42.47
2018-03-20T22:27:04.318Z,52.13
2018-03-20T22:29:34.510Z,48.43
2018-03-20T22:32:05.997Z,45.93
2018-03-20T22:34:35.654Z,44.80
2018-03-20T22:37:04.622Z,47.00
2018-03-20T22:39:35.658Z,52.70
2018-03-20T22:42:05.764Z,53.07
2018-03-20T22:44:35.671Z,58.00
2018-03-20T22:47:05.670Z,47.63
2018-03-20T22:49:35.523Z,48.77
2018-03-20T22:52:06.510Z,48.27
2018-03-20T22:54:35.675Z,58.23
2018-03-20T23:09:43.213Z,44.87
2018-03-20T23:12:10.717Z,51.77
2018-03-20T23:20:41.808Z,42.17
2018-03-20T23:26:39.323Z,44.80
2018-03-20T23:32:08.120Z,38.33
2018-03-20T23:41:08.578Z,50.00
2018-03-20T23:43:44.553Z,44.80
2018-03-20T23:46:12.029Z,47.77
2018-03-20T23:51:35.448Z,47.50
2018-03-20T23:54:10.613Z,47.70
2018-03-20T23:56:38.861Z,41.20
2018-03-20T23:59:07.110Z,41.57
